Data Viewer
| City | State | Eastern Time | Source | Temp | DewPt | RH | BP | 5 Min Precip | Wind Speed | Wind Dir | 5 Min Wind Max | 5 Min Wind Max Dir |
|---|---|---|---|---|---|---|---|---|---|---|---|---|
| Cream Ridge | NJ | 2026-05-09 07:15 | Mesonet | 55 | 49 | 80 | 29.90 | 0.00 | 3 | SSW | 4 | SSW |
| Cream Ridge | NJ | 2026-05-09 23:05 | Mesonet | 49 | 49 | 100 | 29.85 | 0.00 | 2 | E | 2 | E |
| Cream Ridge | NJ | 2026-05-09 23:35 | Mesonet | 50 | 50 | 100 | 29.86 | 0.00 | 1 | ESE | 1 | ESE |
| Cream Ridge | NJ | 2026-05-09 23:30 | Mesonet | 50 | 50 | 100 | 29.85 | 0.00 | 0 | ESE | 1 | ESE |
| Cream Ridge | NJ | 2026-05-09 23:25 | Mesonet | 49 | 49 | 100 | 29.85 | 0.00 | 1 | ESE | 2 | ESE |
| Cream Ridge | NJ | 2026-05-09 23:20 | Mesonet | 49 | 49 | 100 | 29.85 | 0.00 | 2 | ESE | 3 | ESE |
| Cream Ridge | NJ | 2026-05-09 23:15 | Mesonet | 49 | 49 | 100 | 29.85 | 0.00 | 2 | ESE | 3 | ESE |
| Cream Ridge | NJ | 2026-05-09 23:10 | Mesonet | 49 | 49 | 100 | 29.85 | 0.00 | 2 | E | 2 | E |
| Cream Ridge | NJ | 2026-05-09 23:00 | Mesonet | 49 | 49 | 100 | 29.86 | 0.00 | 1 | E | 2 | ESE |
| Cream Ridge | NJ | 2026-05-09 23:45 | Mesonet | 50 | 50 | 100 | 29.86 | 0.00 | 1 | ESE | 2 | ESE |
| Cream Ridge | NJ | 2026-05-09 22:55 | Mesonet | 50 | 50 | 100 | 29.86 | 0.00 | 2 | ESE | 3 | ESE |
| Cream Ridge | NJ | 2026-05-09 22:50 | Mesonet | 51 | 51 | 100 | 29.85 | 0.00 | 2 | ESE | 3 | ESE |
| Cream Ridge | NJ | 2026-05-09 22:45 | Mesonet | 52 | 52 | 100 | 29.85 | 0.00 | 1 | E | 2 | ESE |
| Cream Ridge | NJ | 2026-05-09 22:40 | Mesonet | 52 | 52 | 100 | 29.85 | 0.00 | 2 | ESE | 4 | SE |
| Cream Ridge | NJ | 2026-05-09 22:35 | Mesonet | 52 | 52 | 100 | 29.85 | 0.00 | 4 | SSE | 4 | SE |
| Cream Ridge | NJ | 2026-05-09 22:30 | Mesonet | 51 | 51 | 100 | 29.85 | 0.00 | 3 | SE | 4 | SE |
| Cream Ridge | NJ | 2026-05-09 23:40 | Mesonet | 50 | 50 | 100 | 29.86 | 0.00 | 1 | ESE | 2 | ESE |
| Cream Ridge | NJ | 2026-05-09 23:50 | Mesonet | 49 | 49 | 100 | 29.86 | 0.00 | 0 | E | 1 | ESE |
| Cream Ridge | NJ | 2026-05-09 22:20 | Mesonet | 51 | 51 | 100 | 29.85 | 0.00 | 2 | E | 3 | SSE |
| Cream Ridge | NJ | 2026-05-10 00:35 | Mesonet | 47 | 47 | 100 | 29.86 | 0.00 | 1 | N | 2 | NNW |
| Cream Ridge | NJ | 2026-05-10 01:05 | Mesonet | 48 | 48 | 100 | 29.85 | 0.00 | 0 | ENE | 1 | ENE |
| Cream Ridge | NJ | 2026-05-10 01:00 | Mesonet | 48 | 48 | 100 | 29.86 | 0.00 | 0 | E | 0 | N |
| Cream Ridge | NJ | 2026-05-10 00:55 | Mesonet | 48 | 48 | 100 | 29.86 | 0.00 | 0 | N | 0 | N |
| Cream Ridge | NJ | 2026-05-10 00:50 | Mesonet | 47 | 47 | 100 | 29.86 | 0.00 | 0 | N | 0 | NW |
| Cream Ridge | NJ | 2026-05-10 00:45 | Mesonet | 47 | 47 | 100 | 29.86 | 0.00 | 0 | NW | 1 | N |
| Cream Ridge | NJ | 2026-05-10 00:40 | Mesonet | 47 | 47 | 100 | 29.86 | 0.00 | 1 | N | 1 | N |
| Cream Ridge | NJ | 2026-05-10 00:30 | Mesonet | 48 | 48 | 100 | 29.86 | 0.00 | 1 | NNW | 2 | NNW |
| Cream Ridge | NJ | 2026-05-09 23:55 | Mesonet | 49 | 49 | 100 | 29.86 | 0.00 | 1 | SSE | 1 | ESE |
| Cream Ridge | NJ | 2026-05-10 00:25 | Mesonet | 48 | 48 | 100 | 29.86 | 0.00 | 0 | ENE | 1 | ESE |
| Cream Ridge | NJ | 2026-05-10 00:20 | Mesonet | 48 | 48 | 100 | 29.86 | 0.00 | 0 | ESE | 1 | ESE |
| Cream Ridge | NJ | 2026-05-10 00:15 | Mesonet | 48 | 48 | 100 | 29.86 | 0.00 | 1 | ESE | 1 | SE |
| Cream Ridge | NJ | 2026-05-10 00:10 | Mesonet | 48 | 48 | 100 | 29.86 | 0.00 | 1 | SE | 1 | SE |
| Cream Ridge | NJ | 2026-05-10 00:05 | Mesonet | 48 | 48 | 100 | 29.86 | 0.00 | 0 | SE | 0 | SSE |
| Cream Ridge | NJ | 2026-05-10 00:00 | Mesonet | 49 | 49 | 100 | 29.86 | 0.00 | 0 | SSE | 1 | SSE |
| Cream Ridge | NJ | 2026-05-09 22:25 | Mesonet | 50 | 50 | 100 | 29.85 | 0.00 | 3 | ESE | 4 | ESE |
| Cream Ridge | NJ | 2026-05-09 22:15 | Mesonet | 51 | 51 | 100 | 29.85 | 0.00 | 2 | SSE | 3 | SSE |
| Cream Ridge | NJ | 2026-05-10 01:15 | Mesonet | 48 | 48 | 100 | 29.86 | 0.00 | 1 | S | 2 | SSE |
| Cream Ridge | NJ | 2026-05-09 20:05 | Mesonet | 56 | 54 | 93 | 29.84 | 0.00 | 2 | ENE | 2 | E |
| Cream Ridge | NJ | 2026-05-09 20:35 | Mesonet | 54 | 54 | 97 | 29.84 | 0.00 | 2 | SSE | 3 | SSE |
| Cream Ridge | NJ | 2026-05-09 20:30 | Mesonet | 55 | 54 | 96 | 29.84 | 0.00 | 2 | SE | 3 | SE |
| Cream Ridge | NJ | 2026-05-09 20:25 | Mesonet | 55 | 54 | 96 | 29.84 | 0.00 | 3 | SE | 3 | SE |
| Cream Ridge | NJ | 2026-05-09 20:20 | Mesonet | 55 | 54 | 95 | 29.84 | 0.00 | 3 | SSE | 3 | SE |
| Cream Ridge | NJ | 2026-05-09 20:15 | Mesonet | 55 | 54 | 95 | 29.84 | 0.00 | 2 | SE | 2 | SE |
| Cream Ridge | NJ | 2026-05-09 20:10 | Mesonet | 56 | 54 | 94 | 29.84 | 0.00 | 2 | ESE | 2 | E |
| Cream Ridge | NJ | 2026-05-09 20:00 | Mesonet | 56 | 54 | 92 | 29.84 | 0.00 | 1 | NE | 3 | ENE |
| Cream Ridge | NJ | 2026-05-09 20:45 | Mesonet | 53 | 52 | 97 | 29.84 | 0.00 | 0 | SW | 0 | SW |
| Cream Ridge | NJ | 2026-05-09 19:55 | Mesonet | 56 | 54 | 92 | 29.84 | 0.00 | 2 | ENE | 3 | NE |
| Cream Ridge | NJ | 2026-05-09 19:50 | Mesonet | 57 | 54 | 91 | 29.83 | 0.00 | 2 | NE | 3 | NE |
| Cream Ridge | NJ | 2026-05-09 19:45 | Mesonet | 57 | 54 | 90 | 29.83 | 0.00 | 2 | NE | 3 | NE |
| Cream Ridge | NJ | 2026-05-09 19:40 | Mesonet | 57 | 54 | 89 | 29.83 | 0.00 | 2 | ENE | 3 | E |
| Cream Ridge | NJ | 2026-05-09 19:35 | Mesonet | 58 | 55 | 89 | 29.83 | 0.00 | 2 | ENE | 4 | ESE |
| Cream Ridge | NJ | 2026-05-09 19:30 | Mesonet | 58 | 55 | 89 | 29.82 | 0.00 | 4 | E | 5 | E |
| Cream Ridge | NJ | 2026-05-09 20:40 | Mesonet | 54 | 53 | 97 | 29.84 | 0.00 | 0 | SW | 2 | S |
| Cream Ridge | NJ | 2026-05-09 20:50 | Mesonet | 53 | 52 | 98 | 29.84 | 0.00 | 0 | SSE | 0 | SW |
| Cream Ridge | NJ | 2026-05-09 22:10 | Mesonet | 51 | 51 | 100 | 29.85 | 0.00 | 3 | SE | 3 | ESE |
| Cream Ridge | NJ | 2026-05-09 21:35 | Mesonet | 52 | 52 | 100 | 29.85 | 0.00 | 1 | NE | 1 | NE |
| Cream Ridge | NJ | 2026-05-09 22:05 | Mesonet | 51 | 51 | 100 | 29.85 | 0.00 | 1 | SE | 2 | E |
| Cream Ridge | NJ | 2026-05-09 22:00 | Mesonet | 51 | 51 | 100 | 29.85 | 0.00 | 1 | E | 2 | ESE |
| Cream Ridge | NJ | 2026-05-09 21:55 | Mesonet | 51 | 51 | 100 | 29.85 | 0.00 | 1 | ESE | 2 | E |
| Cream Ridge | NJ | 2026-05-09 21:50 | Mesonet | 51 | 51 | 100 | 29.85 | 0.00 | 1 | E | 1 | ESE |
| Cream Ridge | NJ | 2026-05-09 21:45 | Mesonet | 51 | 51 | 100 | 29.85 | 0.00 | 0 | ENE | 1 | NE |
| Cream Ridge | NJ | 2026-05-09 21:40 | Mesonet | 51 | 51 | 100 | 29.85 | 0.00 | 1 | NE | 1 | NE |
| Cream Ridge | NJ | 2026-05-09 21:30 | Mesonet | 51 | 51 | 100 | 29.85 | 0.00 | 0 | E | 2 | E |
| Cream Ridge | NJ | 2026-05-09 20:55 | Mesonet | 53 | 52 | 98 | 29.84 | 0.00 | 0 | ESE | 1 | ESE |
| Cream Ridge | NJ | 2026-05-09 21:25 | Mesonet | 52 | 52 | 100 | 29.85 | 0.00 | 2 | E | 2 | ESE |
| Cream Ridge | NJ | 2026-05-09 21:20 | Mesonet | 52 | 52 | 100 | 29.85 | 0.00 | 2 | E | 2 | E |
| Cream Ridge | NJ | 2026-05-09 21:15 | Mesonet | 52 | 51 | 99 | 29.85 | 0.00 | 1 | ENE | 2 | ESE |
| Cream Ridge | NJ | 2026-05-09 21:10 | Mesonet | 52 | 52 | 99 | 29.85 | 0.00 | 2 | ESE | 2 | SE |
| Cream Ridge | NJ | 2026-05-09 21:05 | Mesonet | 53 | 52 | 99 | 29.85 | 0.00 | 2 | SE | 2 | SE |
| Cream Ridge | NJ | 2026-05-09 21:00 | Mesonet | 53 | 52 | 99 | 29.84 | 0.00 | 0 | ESE | 0 | ESE |
| Cream Ridge | NJ | 2026-05-10 01:10 | Mesonet | 48 | 48 | 100 | 29.86 | 0.00 | 1 | SE | 1 | SE |
| Cream Ridge | NJ | 2026-05-10 01:20 | Mesonet | 48 | 48 | 100 | 29.86 | 0.00 | 0 | SSW | 1 | S |
| Cream Ridge | NJ | 2026-05-09 19:20 | Mesonet | 58 | 55 | 87 | 29.82 | 0.00 | 6 | ENE | 7 | E |
| Cream Ridge | NJ | 2026-05-10 05:10 | Mesonet | 49 | 49 | 100 | 29.86 | 0.00 | 0 | N | 0 | N |
| Cream Ridge | NJ | 2026-05-10 05:40 | Mesonet | 49 | 49 | 100 | 29.88 | 0.00 | 4 | ENE | 11 | N |
| Cream Ridge | NJ | 2026-05-10 05:35 | Mesonet | 49 | 49 | 100 | 29.89 | 0.00 | 10 | N | 12 | NNW |
| Cream Ridge | NJ | 2026-05-10 05:30 | Mesonet | 49 | 49 | 100 | 29.88 | 0.00 | 11 | N | 13 | NNW |
| Cream Ridge | NJ | 2026-05-10 05:25 | Mesonet | 49 | 49 | 100 | 29.87 | 0.00 | 5 | NNW | 12 | NNW |
| Cream Ridge | NJ | 2026-05-10 05:20 | Mesonet | 49 | 49 | 100 | 29.86 | 0.00 | 2 | N | 2 | N |
| Cream Ridge | NJ | 2026-05-10 05:15 | Mesonet | 49 | 49 | 100 | 29.86 | 0.00 | 0 | S | 1 | SSW |
| Cream Ridge | NJ | 2026-05-10 05:05 | Mesonet | 49 | 49 | 100 | 29.86 | 0.00 | 0 | N | 2 | N |
| Cream Ridge | NJ | 2026-05-10 05:50 | Mesonet | 49 | 49 | 100 | 29.89 | 0.00 | 6 | NNE | 8 | N |
| Cream Ridge | NJ | 2026-05-10 05:00 | Mesonet | 49 | 49 | 100 | 29.86 | 0.00 | 2 | N | 2 | NNE |
| Cream Ridge | NJ | 2026-05-10 04:55 | Mesonet | 49 | 49 | 100 | 29.86 | 0.00 | 1 | NNE | 2 | N |
| Cream Ridge | NJ | 2026-05-10 04:50 | Mesonet | 49 | 49 | 100 | 29.86 | 0.00 | 2 | N | 2 | N |
| Cream Ridge | NJ | 2026-05-10 04:45 | Mesonet | 49 | 49 | 100 | 29.86 | 0.00 | 2 | N | 2 | NNE |
| Cream Ridge | NJ | 2026-05-10 04:40 | Mesonet | 49 | 49 | 100 | 29.86 | 0.00 | 1 | NNE | 3 | NNE |
| Cream Ridge | NJ | 2026-05-10 04:35 | Mesonet | 49 | 49 | 100 | 29.86 | 0.00 | 2 | N | 4 | NNE |
| Cream Ridge | NJ | 2026-05-10 05:45 | Mesonet | 49 | 49 | 100 | 29.88 | 0.00 | 8 | NNE | 10 | N |
| Cream Ridge | NJ | 2026-05-10 05:55 | Mesonet | 49 | 49 | 100 | 29.88 | 0.00 | 4 | NNE | 10 | N |
| Cream Ridge | NJ | 2026-05-10 04:25 | Mesonet | 49 | 49 | 100 | 29.86 | 0.00 | 3 | NNE | 4 | NNE |
| Cream Ridge | NJ | 2026-05-10 06:40 | Mesonet | 50 | 50 | 100 | 29.89 | 0.00 | 5 | E | 5 | E |
| Cream Ridge | NJ | 2026-05-10 07:10 | Mesonet | 51 | 51 | 100 | 29.90 | 0.00 | 2 | NNW | 5 | E |
| Cream Ridge | NJ | 2026-05-10 07:05 | Mesonet | 51 | 51 | 100 | 29.89 | 0.00 | 3 | NE | 4 | SE |
| Cream Ridge | NJ | 2026-05-10 07:00 | Mesonet | 51 | 51 | 100 | 29.88 | 0.00 | 2 | E | 8 | E |
| Cream Ridge | NJ | 2026-05-10 06:55 | Mesonet | 51 | 51 | 100 | 29.88 | 0.00 | 4 | E | 7 | E |
| Cream Ridge | NJ | 2026-05-10 06:50 | Mesonet | 51 | 51 | 100 | 29.88 | 0.00 | 4 | E | 6 | E |
| Cream Ridge | NJ | 2026-05-10 06:45 | Mesonet | 50 | 50 | 100 | 29.88 | 0.00 | 5 | ENE | 5 | ENE |
| Cream Ridge | NJ | 2026-05-10 06:35 | Mesonet | 50 | 50 | 100 | 29.89 | 0.00 | 3 | ESE | 4 | E |
| Cream Ridge | NJ | 2026-05-10 06:00 | Mesonet | 49 | 49 | 100 | 29.89 | 0.00 | 4 | NE | 8 | NE |
| Cream Ridge | NJ | 2026-05-10 06:30 | Mesonet | 50 | 50 | 100 | 29.90 | 0.00 | 2 | NE | 3 | NNE |
| Cream Ridge | NJ | 2026-05-10 06:25 | Mesonet | 50 | 50 | 100 | 29.89 | 0.00 | 2 | NE | 3 | ENE |
| Cream Ridge | NJ | 2026-05-10 06:20 | Mesonet | 50 | 50 | 100 | 29.89 | 0.00 | 2 | ENE | 4 | ENE |
| Cream Ridge | NJ | 2026-05-10 06:15 | Mesonet | 50 | 50 | 100 | 29.89 | 0.00 | 2 | NE | 4 | E |
| Cream Ridge | NJ | 2026-05-10 06:10 | Mesonet | 50 | 50 | 100 | 29.89 | 0.00 | 3 | NE | 5 | ENE |
| Cream Ridge | NJ | 2026-05-10 06:05 | Mesonet | 50 | 50 | 100 | 29.89 | 0.00 | 3 | E | 7 | NNE |
| Cream Ridge | NJ | 2026-05-10 04:30 | Mesonet | 49 | 49 | 100 | 29.86 | 0.00 | 3 | N | 3 | N |
| Cream Ridge | NJ | 2026-05-10 04:20 | Mesonet | 49 | 49 | 100 | 29.86 | 0.00 | 2 | NNE | 4 | N |
| Cream Ridge | NJ | 2026-05-10 01:25 | Mesonet | 47 | 47 | 100 | 29.86 | 0.00 | 0 | SSW | 0 | SSW |
| Cream Ridge | NJ | 2026-05-10 02:05 | Mesonet | 45 | 45 | 100 | 29.84 | 0.00 | 1 | E | 2 | ENE |
| Cream Ridge | NJ | 2026-05-10 02:35 | Mesonet | 46 | 46 | 100 | 29.84 | 0.00 | 2 | SE | 2 | ESE |
| Cream Ridge | NJ | 2026-05-10 02:30 | Mesonet | 47 | 47 | 100 | 29.84 | 0.00 | 2 | ESE | 3 | ESE |
| Cream Ridge | NJ | 2026-05-10 02:25 | Mesonet | 46 | 46 | 100 | 29.84 | 0.00 | 2 | E | 3 | E |
| Cream Ridge | NJ | 2026-05-10 02:20 | Mesonet | 46 | 46 | 100 | 29.85 | 0.00 | 2 | E | 3 | ENE |
| Cream Ridge | NJ | 2026-05-10 02:15 | Mesonet | 46 | 46 | 100 | 29.85 | 0.00 | 1 | ENE | 2 | ENE |
| Cream Ridge | NJ | 2026-05-10 02:10 | Mesonet | 46 | 46 | 100 | 29.84 | 0.00 | 2 | ENE | 2 | ENE |
| Cream Ridge | NJ | 2026-05-10 02:00 | Mesonet | 45 | 45 | 100 | 29.85 | 0.00 | 1 | NE | 3 | ENE |
| Cream Ridge | NJ | 2026-05-10 02:45 | Mesonet | 46 | 46 | 100 | 29.84 | 0.00 | 0 | ESE | 1 | ESE |
| Cream Ridge | NJ | 2026-05-10 01:55 | Mesonet | 45 | 45 | 100 | 29.85 | 0.00 | 1 | N | 2 | NNE |
| Cream Ridge | NJ | 2026-05-10 01:50 | Mesonet | 46 | 46 | 100 | 29.85 | 0.00 | 1 | NNE | 2 | NNE |
| Cream Ridge | NJ | 2026-05-10 01:45 | Mesonet | 47 | 47 | 100 | 29.85 | 0.00 | 1 | N | 1 | NNE |
| Cream Ridge | NJ | 2026-05-10 01:40 | Mesonet | 47 | 47 | 100 | 29.85 | 0.00 | 1 | NNE | 1 | NNE |
| Cream Ridge | NJ | 2026-05-10 01:35 | Mesonet | 47 | 47 | 100 | 29.85 | 0.00 | 0 | S | 0 | S |
| Cream Ridge | NJ | 2026-05-10 01:30 | Mesonet | 47 | 47 | 100 | 29.85 | 0.00 | 0 | S | 0 | SSW |
| Cream Ridge | NJ | 2026-05-10 02:40 | Mesonet | 46 | 46 | 100 | 29.84 | 0.00 | 1 | ESE | 2 | SE |
| Cream Ridge | NJ | 2026-05-10 02:50 | Mesonet | 45 | 45 | 100 | 29.84 | 0.00 | 0 | ENE | 0 | ESE |
| Cream Ridge | NJ | 2026-05-10 04:15 | Mesonet | 49 | 49 | 100 | 29.86 | 0.00 | 4 | N | 5 | NNE |
| Cream Ridge | NJ | 2026-05-10 03:40 | Mesonet | 45 | 45 | 100 | 29.85 | 0.00 | 5 | N | 5 | N |
| Cream Ridge | NJ | 2026-05-10 04:10 | Mesonet | 48 | 48 | 100 | 29.86 | 0.00 | 4 | NNE | 5 | N |
| Cream Ridge | NJ | 2026-05-10 04:05 | Mesonet | 47 | 47 | 100 | 29.86 | 0.00 | 4 | N | 4 | N |
| Cream Ridge | NJ | 2026-05-10 04:00 | Mesonet | 47 | 47 | 100 | 29.86 | 0.00 | 2 | NNE | 2 | NE |
| Cream Ridge | NJ | 2026-05-10 03:55 | Mesonet | 46 | 46 | 100 | 29.85 | 0.00 | 2 | NE | 2 | NNE |
| Cream Ridge | NJ | 2026-05-10 03:50 | Mesonet | 46 | 46 | 100 | 29.86 | 0.00 | 2 | NNE | 4 | NNE |
| Cream Ridge | NJ | 2026-05-10 03:45 | Mesonet | 45 | 45 | 100 | 29.86 | 0.00 | 4 | N | 5 | N |
| Cream Ridge | NJ | 2026-05-10 03:35 | Mesonet | 44 | 44 | 100 | 29.85 | 0.00 | 4 | NNE | 4 | NNE |
| Cream Ridge | NJ | 2026-05-10 02:55 | Mesonet | 46 | 46 | 100 | 29.84 | 0.00 | 0 | E | 0 | ENE |
| Cream Ridge | NJ | 2026-05-10 03:30 | Mesonet | 45 | 45 | 100 | 29.84 | 0.00 | 3 | NNE | 3 | NNE |
| Cream Ridge | NJ | 2026-05-10 03:25 | Mesonet | 45 | 45 | 100 | 29.84 | 0.00 | 2 | NNE | 2 | NE |
| Cream Ridge | NJ | 2026-05-10 03:20 | Mesonet | 46 | 46 | 100 | 29.84 | 0.00 | 2 | NE | 2 | NE |
| Cream Ridge | NJ | 2026-05-10 03:15 | Mesonet | 46 | 46 | 100 | 29.84 | 0.00 | 1 | ENE | 1 | ENE |
| Cream Ridge | NJ | 2026-05-10 03:10 | Mesonet | 46 | 46 | 100 | 29.84 | 0.00 | 1 | ESE | 1 | SSE |
| Cream Ridge | NJ | 2026-05-10 03:05 | Mesonet | 46 | 46 | 100 | 29.84 | 0.00 | 1 | SSE | 1 | S |
| Cream Ridge | NJ | 2026-05-10 03:00 | Mesonet | 46 | 46 | 100 | 29.84 | 0.00 | 0 | E | 0 | E |
| Cream Ridge | NJ | 2026-05-09 19:25 | Mesonet | 58 | 54 | 88 | 29.82 | 0.00 | 4 | E | 6 | E |
| Cream Ridge | NJ | 2026-05-09 19:15 | Mesonet | 58 | 55 | 87 | 29.82 | 0.00 | 5 | E | 7 | ESE |
| Cream Ridge | NJ | 2026-05-09 07:20 | Mesonet | 55 | 49 | 80 | 29.90 | 0.00 | 2 | SSW | 5 | SW |
| Cream Ridge | NJ | 2026-05-09 11:00 | Mesonet | 69 | 54 | 58 | 29.87 | 0.00 | 8 | S | 19 | SSW |
| Cream Ridge | NJ | 2026-05-09 11:30 | Mesonet | 69 | 51 | 52 | 29.86 | 0.00 | 16 | SSW | 25 | SW |
| Cream Ridge | NJ | 2026-05-09 11:25 | Mesonet | 70 | 52 | 54 | 29.86 | 0.00 | 9 | SW | 24 | SSW |
| Cream Ridge | NJ | 2026-05-09 11:20 | Mesonet | 69 | 53 | 56 | 29.86 | 0.00 | 15 | WSW | 19 | WSW |
| Cream Ridge | NJ | 2026-05-09 11:15 | Mesonet | 70 | 54 | 57 | 29.86 | 0.00 | 18 | WSW | 20 | WSW |
| Cream Ridge | NJ | 2026-05-09 11:10 | Mesonet | 71 | 55 | 57 | 29.86 | 0.00 | 17 | W | 17 | W |
| Cream Ridge | NJ | 2026-05-09 11:05 | Mesonet | 70 | 54 | 57 | 29.87 | 0.00 | 10 | WSW | 19 | SW |
| Cream Ridge | NJ | 2026-05-09 10:55 | Mesonet | 69 | 53 | 57 | 29.87 | 0.00 | 16 | SW | 18 | SW |
| Cream Ridge | NJ | 2026-05-09 11:40 | Mesonet | 69 | 51 | 52 | 29.86 | 0.00 | 18 | WSW | 23 | WSW |
| Cream Ridge | NJ | 2026-05-09 10:50 | Mesonet | 68 | 53 | 58 | 29.87 | 0.00 | 12 | SSW | 19 | SW |
| Cream Ridge | NJ | 2026-05-09 10:45 | Mesonet | 68 | 53 | 58 | 29.87 | 0.00 | 14 | SW | 21 | SW |
| Cream Ridge | NJ | 2026-05-09 10:40 | Mesonet | 68 | 52 | 58 | 29.87 | 0.00 | 15 | SW | 24 | SW |
| Cream Ridge | NJ | 2026-05-09 10:35 | Mesonet | 67 | 53 | 59 | 29.87 | 0.00 | 15 | WSW | 19 | SSW |
| Cream Ridge | NJ | 2026-05-09 10:30 | Mesonet | 67 | 54 | 62 | 29.87 | 0.00 | 8 | SW | 16 | SW |
| Cream Ridge | NJ | 2026-05-09 10:25 | Mesonet | 67 | 53 | 61 | 29.87 | 0.00 | 16 | WSW | 16 | WSW |
| Cream Ridge | NJ | 2026-05-09 11:35 | Mesonet | 69 | 52 | 53 | 29.86 | 0.00 | 16 | SW | 25 | SW |
| Cream Ridge | NJ | 2026-05-09 11:45 | Mesonet | 69 | 51 | 54 | 29.86 | 0.00 | 20 | SW | 22 | WSW |
| Cream Ridge | NJ | 2026-05-09 10:15 | Mesonet | 66 | 53 | 62 | 29.87 | 0.00 | 15 | WSW | 22 | SW |
| Cream Ridge | NJ | 2026-05-09 12:30 | Mesonet | 69 | 52 | 54 | 29.84 | 0.00 | 14 | WSW | 17 | WSW |
| Cream Ridge | NJ | 2026-05-09 13:00 | Mesonet | 67 | 53 | 61 | 29.83 | 0.00 | 8 | WNW | 12 | WNW |
| Cream Ridge | NJ | 2026-05-09 12:55 | Mesonet | 68 | 55 | 63 | 29.83 | 0.00 | 9 | NW | 12 | NW |
| Cream Ridge | NJ | 2026-05-09 12:50 | Mesonet | 68 | 54 | 61 | 29.83 | 0.00 | 10 | NW | 13 | NW |
| Cream Ridge | NJ | 2026-05-09 12:45 | Mesonet | 68 | 54 | 61 | 29.83 | 0.00 | 9 | W | 12 | W |
| Cream Ridge | NJ | 2026-05-09 12:40 | Mesonet | 68 | 53 | 57 | 29.83 | 0.00 | 11 | W | 17 | W |
| Cream Ridge | NJ | 2026-05-09 12:35 | Mesonet | 69 | 52 | 54 | 29.83 | 0.00 | 11 | W | 19 | WSW |
| Cream Ridge | NJ | 2026-05-09 12:25 | Mesonet | 68 | 52 | 56 | 29.84 | 0.00 | 14 | WSW | 20 | WSW |
| Cream Ridge | NJ | 2026-05-09 11:50 | Mesonet | 69 | 52 | 55 | 29.86 | 0.00 | 11 | SW | 20 | WSW |
| Cream Ridge | NJ | 2026-05-09 12:20 | Mesonet | 68 | 51 | 54 | 29.85 | 0.00 | 20 | WSW | 24 | WSW |
| Cream Ridge | NJ | 2026-05-09 12:15 | Mesonet | 68 | 51 | 54 | 29.85 | 0.00 | 17 | WSW | 29 | SW |
| Cream Ridge | NJ | 2026-05-09 12:10 | Mesonet | 69 | 52 | 54 | 29.85 | 0.00 | 17 | WSW | 20 | W |
| Cream Ridge | NJ | 2026-05-09 12:05 | Mesonet | 69 | 52 | 55 | 29.86 | 0.00 | 8 | WSW | 19 | WSW |
| Cream Ridge | NJ | 2026-05-09 12:00 | Mesonet | 69 | 51 | 53 | 29.85 | 0.00 | 15 | SSW | 21 | SW |
| Cream Ridge | NJ | 2026-05-09 11:55 | Mesonet | 69 | 52 | 55 | 29.86 | 0.00 | 7 | WSW | 16 | SW |
| Cream Ridge | NJ | 2026-05-09 10:20 | Mesonet | 67 | 53 | 61 | 29.87 | 0.00 | 13 | SW | 16 | WSW |
| Cream Ridge | NJ | 2026-05-09 10:10 | Mesonet | 66 | 53 | 63 | 29.88 | 0.00 | 9 | SW | 16 | SSW |
| Cream Ridge | NJ | 2026-05-09 13:10 | Mesonet | 67 | 53 | 61 | 29.83 | 0.00 | 9 | NW | 12 | WNW |
| Cream Ridge | NJ | 2026-05-09 08:00 | Mesonet | 57 | 51 | 78 | 29.90 | 0.00 | 5 | S | 11 | SSW |
| Cream Ridge | NJ | 2026-05-09 08:30 | Mesonet | 60 | 52 | 77 | 29.89 | 0.00 | 5 | SSW | 9 | S |
| Cream Ridge | NJ | 2026-05-09 08:25 | Mesonet | 59 | 52 | 77 | 29.89 | 0.00 | 6 | SSW | 11 | S |
| Cream Ridge | NJ | 2026-05-09 08:20 | Mesonet | 59 | 52 | 77 | 29.89 | 0.00 | 4 | SSW | 9 | SW |
| Cream Ridge | NJ | 2026-05-09 08:15 | Mesonet | 59 | 52 | 78 | 29.89 | 0.00 | 5 | SSW | 9 | SW |
| Cream Ridge | NJ | 2026-05-09 08:10 | Mesonet | 58 | 51 | 78 | 29.90 | 0.00 | 4 | S | 10 | SSW |
| Cream Ridge | NJ | 2026-05-09 08:05 | Mesonet | 58 | 51 | 78 | 29.90 | 0.00 | 4 | SW | 12 | S |
| Cream Ridge | NJ | 2026-05-09 07:55 | Mesonet | 57 | 50 | 78 | 29.90 | 0.00 | 7 | SSW | 10 | SSW |
| Cream Ridge | NJ | 2026-05-09 08:40 | Mesonet | 60 | 52 | 75 | 29.88 | 0.00 | 8 | SSW | 10 | S |
| Cream Ridge | NJ | 2026-05-09 07:50 | Mesonet | 57 | 50 | 78 | 29.89 | 0.00 | 7 | SSW | 10 | S |
| Cream Ridge | NJ | 2026-05-09 07:45 | Mesonet | 57 | 50 | 78 | 29.89 | 0.00 | 6 | SSW | 10 | S |
| Cream Ridge | NJ | 2026-05-09 07:40 | Mesonet | 56 | 50 | 78 | 29.89 | 0.00 | 6 | SE | 8 | SSW |
| Cream Ridge | NJ | 2026-05-09 07:35 | Mesonet | 56 | 50 | 79 | 29.90 | 0.00 | 5 | SSW | 8 | SW |
| Cream Ridge | NJ | 2026-05-09 07:30 | Mesonet | 56 | 50 | 79 | 29.90 | 0.00 | 4 | SSW | 6 | SSW |
| Cream Ridge | NJ | 2026-05-09 07:25 | Mesonet | 56 | 49 | 79 | 29.90 | 0.00 | 4 | S | 8 | SW |
| Cream Ridge | NJ | 2026-05-09 08:35 | Mesonet | 60 | 53 | 77 | 29.89 | 0.00 | 7 | SSE | 11 | SSW |
| Cream Ridge | NJ | 2026-05-09 08:45 | Mesonet | 60 | 52 | 75 | 29.89 | 0.00 | 10 | SSW | 12 | SW |
| Cream Ridge | NJ | 2026-05-09 10:05 | Mesonet | 66 | 53 | 63 | 29.87 | 0.00 | 12 | SW | 17 | SW |
| Cream Ridge | NJ | 2026-05-09 09:30 | Mesonet | 65 | 54 | 68 | 29.88 | 0.00 | 10 | SW | 13 | SW |
| Cream Ridge | NJ | 2026-05-09 10:00 | Mesonet | 66 | 53 | 63 | 29.87 | 0.00 | 13 | SW | 23 | SW |
| Cream Ridge | NJ | 2026-05-09 09:55 | Mesonet | 67 | 54 | 63 | 29.87 | 0.00 | 15 | SW | 20 | SW |
| Cream Ridge | NJ | 2026-05-09 09:50 | Mesonet | 67 | 55 | 65 | 29.87 | 0.00 | 5 | SSW | 17 | S |
| Cream Ridge | NJ | 2026-05-09 09:45 | Mesonet | 66 | 54 | 67 | 29.88 | 0.00 | 8 | SSW | 18 | SW |
| Cream Ridge | NJ | 2026-05-09 09:40 | Mesonet | 65 | 53 | 65 | 29.88 | 0.00 | 7 | WSW | 14 | S |
| Cream Ridge | NJ | 2026-05-09 09:35 | Mesonet | 65 | 53 | 66 | 29.88 | 0.00 | 10 | SW | 16 | SW |
| Cream Ridge | NJ | 2026-05-09 09:25 | Mesonet | 64 | 54 | 69 | 29.88 | 0.00 | 9 | S | 12 | SW |
| Cream Ridge | NJ | 2026-05-09 08:50 | Mesonet | 60 | 52 | 75 | 29.89 | 0.00 | 11 | WSW | 11 | SW |
| Cream Ridge | NJ | 2026-05-09 09:20 | Mesonet | 63 | 54 | 72 | 29.88 | 0.00 | 6 | SSW | 13 | SW |
| Cream Ridge | NJ | 2026-05-09 09:15 | Mesonet | 63 | 54 | 73 | 29.88 | 0.00 | 7 | WSW | 9 | SW |
| Cream Ridge | NJ | 2026-05-09 09:10 | Mesonet | 62 | 53 | 73 | 29.89 | 0.00 | 6 | SSW | 12 | WSW |
| Cream Ridge | NJ | 2026-05-09 09:05 | Mesonet | 61 | 53 | 73 | 29.88 | 0.00 | 7 | SSW | 13 | SSW |
| Cream Ridge | NJ | 2026-05-09 09:00 | Mesonet | 61 | 53 | 74 | 29.88 | 0.00 | 4 | SW | 11 | SSW |
| Cream Ridge | NJ | 2026-05-09 08:55 | Mesonet | 61 | 53 | 76 | 29.89 | 0.00 | 6 | S | 14 | SW |
| Cream Ridge | NJ | 2026-05-09 13:05 | Mesonet | 67 | 53 | 60 | 29.83 | 0.00 | 7 | NW | 13 | NW |
| Cream Ridge | NJ | 2026-05-09 13:15 | Mesonet | 67 | 54 | 63 | 29.83 | 0.00 | 11 | NNW | 12 | WNW |
| Cream Ridge | NJ | 2026-05-09 19:10 | Mesonet | 58 | 55 | 89 | 29.82 | 0.00 | 5 | ENE | 6 | E |
| Cream Ridge | NJ | 2026-05-09 17:05 | Mesonet | 62 | 54 | 76 | 29.83 | 0.00 | 4 | NE | 10 | E |
| Cream Ridge | NJ | 2026-05-09 17:35 | Mesonet | 60 | 54 | 80 | 29.85 | 0.00 | 11 | N | 11 | N |
| Cream Ridge | NJ | 2026-05-09 17:30 | Mesonet | 61 | 54 | 80 | 29.84 | 0.00 | 7 | N | 10 | NNW |
| Cream Ridge | NJ | 2026-05-09 17:25 | Mesonet | 61 | 54 | 79 | 29.84 | 0.00 | 8 | NNE | 10 | NNE |
| Cream Ridge | NJ | 2026-05-09 17:20 | Mesonet | 61 | 54 | 79 | 29.84 | 0.00 | 6 | NNE | 11 | NNE |
| Cream Ridge | NJ | 2026-05-09 17:15 | Mesonet | 61 | 54 | 78 | 29.84 | 0.00 | 8 | NNE | 9 | NE |
| Cream Ridge | NJ | 2026-05-09 17:10 | Mesonet | 61 | 53 | 75 | 29.83 | 0.00 | 4 | NE | 8 | NE |
| Cream Ridge | NJ | 2026-05-09 17:00 | Mesonet | 62 | 54 | 77 | 29.83 | 0.00 | 8 | ENE | 10 | NE |
| Cream Ridge | NJ | 2026-05-09 17:45 | Mesonet | 60 | 54 | 81 | 29.86 | 0.00 | 9 | N | 11 | N |
| Cream Ridge | NJ | 2026-05-09 16:55 | Mesonet | 61 | 54 | 76 | 29.84 | 0.00 | 5 | NNE | 9 | ENE |
| Cream Ridge | NJ | 2026-05-09 16:50 | Mesonet | 62 | 55 | 78 | 29.84 | 0.00 | 9 | NE | 9 | NE |
| Cream Ridge | NJ | 2026-05-09 16:45 | Mesonet | 62 | 54 | 77 | 29.83 | 0.00 | 4 | NE | 9 | NNE |
| Cream Ridge | NJ | 2026-05-09 16:40 | Mesonet | 61 | 55 | 79 | 29.84 | 0.00 | 5 | NE | 9 | N |
| Cream Ridge | NJ | 2026-05-09 16:35 | Mesonet | 61 | 53 | 76 | 29.85 | 0.00 | 7 | NNE | 10 | NNE |
| Cream Ridge | NJ | 2026-05-09 16:30 | Mesonet | 61 | 54 | 77 | 29.84 | 0.00 | 8 | NNE | 11 | NNE |
| Cream Ridge | NJ | 2026-05-09 17:40 | Mesonet | 60 | 54 | 80 | 29.85 | 0.00 | 7 | N | 10 | N |
| Cream Ridge | NJ | 2026-05-09 17:50 | Mesonet | 60 | 54 | 81 | 29.86 | 0.00 | 6 | N | 11 | SSE |
| Cream Ridge | NJ | 2026-05-09 16:20 | Mesonet | 61 | 54 | 78 | 29.84 | 0.00 | 7 | NE | 10 | NNE |
| Cream Ridge | NJ | 2026-05-09 18:35 | Mesonet | 58 | 55 | 91 | 29.84 | 0.00 | 3 | NNE | 6 | NE |
| Cream Ridge | NJ | 2026-05-09 19:05 | Mesonet | 58 | 55 | 90 | 29.83 | 0.00 | 4 | E | 6 | ENE |
| Cream Ridge | NJ | 2026-05-09 19:00 | Mesonet | 58 | 55 | 91 | 29.83 | 0.00 | 3 | ENE | 5 | ENE |
| Cream Ridge | NJ | 2026-05-09 18:55 | Mesonet | 58 | 55 | 90 | 29.83 | 0.00 | 4 | NE | 5 | ENE |
| Cream Ridge | NJ | 2026-05-09 18:50 | Mesonet | 58 | 55 | 90 | 29.83 | 0.00 | 3 | NE | 5 | ENE |
| Cream Ridge | NJ | 2026-05-09 18:45 | Mesonet | 58 | 55 | 91 | 29.83 | 0.00 | 5 | ENE | 6 | ENE |
| Cream Ridge | NJ | 2026-05-09 18:40 | Mesonet | 58 | 56 | 91 | 29.83 | 0.00 | 4 | ENE | 6 | ENE |
| Cream Ridge | NJ | 2026-05-09 18:30 | Mesonet | 58 | 55 | 90 | 29.83 | 0.00 | 4 | ENE | 6 | NE |
| Cream Ridge | NJ | 2026-05-09 17:55 | Mesonet | 59 | 54 | 82 | 29.86 | 0.00 | 5 | NNE | 10 | N |
| Cream Ridge | NJ | 2026-05-09 18:25 | Mesonet | 58 | 55 | 89 | 29.83 | 0.00 | 4 | ENE | 6 | ENE |
| Cream Ridge | NJ | 2026-05-09 18:20 | Mesonet | 58 | 55 | 87 | 29.83 | 0.00 | 6 | ENE | 7 | E |
| Cream Ridge | NJ | 2026-05-09 18:15 | Mesonet | 59 | 55 | 88 | 29.83 | 0.00 | 4 | ENE | 7 | ENE |
| Cream Ridge | NJ | 2026-05-09 18:10 | Mesonet | 59 | 55 | 88 | 29.84 | 0.01 | 5 | E | 8 | ENE |
| Cream Ridge | NJ | 2026-05-09 18:05 | Mesonet | 59 | 55 | 87 | 29.84 | 0.00 | 4 | NNE | 12 | ENE |
| Cream Ridge | NJ | 2026-05-09 18:00 | Mesonet | 59 | 55 | 86 | 29.83 | 0.01 | 11 | ENE | 13 | E |
| Cream Ridge | NJ | 2026-05-09 16:25 | Mesonet | 61 | 54 | 76 | 29.84 | 0.00 | 8 | NNE | 11 | NNE |
| Cream Ridge | NJ | 2026-05-09 16:15 | Mesonet | 61 | 54 | 77 | 29.84 | 0.00 | 8 | NE | 11 | NNE |
| Cream Ridge | NJ | 2026-05-09 13:20 | Mesonet | 66 | 53 | 65 | 29.83 | 0.00 | 4 | NW | 11 | NW |
| Cream Ridge | NJ | 2026-05-09 14:00 | Mesonet | 61 | 56 | 85 | 29.85 | 0.00 | 4 | NNW | 8 | NW |
| Cream Ridge | NJ | 2026-05-09 14:30 | Mesonet | 62 | 56 | 83 | 29.84 | 0.00 | 3 | N | 7 | N |
| Cream Ridge | NJ | 2026-05-09 14:25 | Mesonet | 62 | 57 | 85 | 29.84 | 0.00 | 5 | NNE | 6 | NNE |
| Cream Ridge | NJ | 2026-05-09 14:20 | Mesonet | 62 | 58 | 86 | 29.84 | 0.00 | 3 | NNE | 5 | NNE |
| Cream Ridge | NJ | 2026-05-09 14:15 | Mesonet | 62 | 56 | 83 | 29.84 | 0.00 | 3 | NNW | 7 | N |
| Cream Ridge | NJ | 2026-05-09 14:10 | Mesonet | 61 | 56 | 84 | 29.84 | 0.00 | 5 | NNW | 7 | NW |
| Cream Ridge | NJ | 2026-05-09 14:05 | Mesonet | 61 | 57 | 86 | 29.84 | 0.00 | 5 | NNW | 6 | NNW |
| Cream Ridge | NJ | 2026-05-09 13:55 | Mesonet | 61 | 56 | 86 | 29.85 | 0.00 | 8 | NNW | 9 | NW |
| Cream Ridge | NJ | 2026-05-09 14:40 | Mesonet | 62 | 57 | 85 | 29.84 | 0.00 | 5 | NNW | 7 | N |
| Cream Ridge | NJ | 2026-05-09 13:50 | Mesonet | 60 | 56 | 86 | 29.84 | 0.00 | 4 | NW | 8 | NW |
| Cream Ridge | NJ | 2026-05-09 13:45 | Mesonet | 61 | 56 | 84 | 29.84 | 0.01 | 6 | NW | 15 | NNW |
| Cream Ridge | NJ | 2026-05-09 13:40 | Mesonet | 61 | 55 | 80 | 29.84 | 0.03 | 9 | NW | 15 | NW |
| Cream Ridge | NJ | 2026-05-09 13:35 | Mesonet | 63 | 55 | 75 | 29.83 | 0.00 | 13 | NW | 15 | NW |
| Cream Ridge | NJ | 2026-05-09 13:30 | Mesonet | 63 | 54 | 72 | 29.83 | 0.00 | 10 | NW | 15 | NW |
| Cream Ridge | NJ | 2026-05-09 13:25 | Mesonet | 65 | 54 | 68 | 29.83 | 0.00 | 12 | NW | 13 | WNW |
| Cream Ridge | NJ | 2026-05-09 14:35 | Mesonet | 61 | 56 | 83 | 29.84 | 0.00 | 3 | N | 6 | N |
| Cream Ridge | NJ | 2026-05-09 14:45 | Mesonet | 62 | 57 | 85 | 29.83 | 0.00 | 5 | NNW | 6 | NW |
| Cream Ridge | NJ | 2026-05-09 16:10 | Mesonet | 62 | 55 | 78 | 29.83 | 0.00 | 9 | NNE | 11 | NNE |
| Cream Ridge | NJ | 2026-05-09 15:35 | Mesonet | 63 | 56 | 78 | 29.83 | 0.00 | 8 | NNW | 9 | N |
| Cream Ridge | NJ | 2026-05-09 16:05 | Mesonet | 62 | 54 | 76 | 29.83 | 0.00 | 7 | N | 10 | NNE |
| Cream Ridge | NJ | 2026-05-09 16:00 | Mesonet | 62 | 54 | 77 | 29.83 | 0.00 | 6 | NE | 10 | NNE |
| Cream Ridge | NJ | 2026-05-09 15:55 | Mesonet | 62 | 55 | 77 | 29.83 | 0.00 | 8 | NNE | 11 | NE |
| Cream Ridge | NJ | 2026-05-09 15:50 | Mesonet | 62 | 55 | 77 | 29.83 | 0.00 | 8 | NNE | 11 | NNE |
| Cream Ridge | NJ | 2026-05-09 15:45 | Mesonet | 63 | 55 | 75 | 29.83 | 0.00 | 4 | NNE | 11 | N |
| Cream Ridge | NJ | 2026-05-09 15:40 | Mesonet | 63 | 55 | 76 | 29.84 | 0.00 | 3 | N | 9 | N |
| Cream Ridge | NJ | 2026-05-09 15:30 | Mesonet | 62 | 56 | 80 | 29.84 | 0.00 | 7 | N | 9 | NNW |
| Cream Ridge | NJ | 2026-05-09 14:50 | Mesonet | 62 | 58 | 85 | 29.83 | 0.00 | 6 | NNW | 7 | NNW |
| Cream Ridge | NJ | 2026-05-09 15:25 | Mesonet | 62 | 56 | 79 | 29.84 | 0.00 | 6 | NNW | 10 | NNW |
| Cream Ridge | NJ | 2026-05-09 15:20 | Mesonet | 62 | 56 | 80 | 29.84 | 0.00 | 9 | NW | 11 | N |
| Cream Ridge | NJ | 2026-05-09 15:15 | Mesonet | 62 | 55 | 80 | 29.84 | 0.00 | 10 | N | 12 | N |
| Cream Ridge | NJ | 2026-05-09 15:10 | Mesonet | 62 | 56 | 81 | 29.84 | 0.00 | 7 | N | 9 | NNW |
| Cream Ridge | NJ | 2026-05-09 15:05 | Mesonet | 62 | 57 | 84 | 29.84 | 0.00 | 6 | NNW | 8 | NNW |
| Cream Ridge | NJ | 2026-05-09 15:00 | Mesonet | 62 | 57 | 85 | 29.84 | 0.00 | 5 | NW | 7 | NNW |
| Cream Ridge | NJ | 2026-05-09 14:55 | Mesonet | 62 | 58 | 86 | 29.84 | 0.00 | 4 | NNW | 6 | NNW |
| Cream Ridge | NJ | 2026-05-10 07:15 | Mesonet | 52 | 52 | 100 | 29.90 | 0.00 | 2 | N | 7 | NW |
data collection created in 0.061985015869141 (queried in 0.011883) rendered in: 0.00089812278747559

